Time;durP1;ratioP1;P1;durP2;ratioP2;P2;SDS_P1;SDS_P2;PMS_P1;PMS_P2;Temp;Humidity;BMP_temperature;BMP_pressure;BME280_temperature;BME280_humidity;BME280_pressure;Samples;Min_cycle;Max_cycle;Signal;HPM_P1;HPM_P2
2021/10/31 00:01:45;;;;;;;25.42;10.10;;;11.80;99.90;;;;;;5015622;28;20049;-87
2021/10/31 00:04:11;;;;;;;26.45;10.65;;;11.90;99.90;;;;;;4998888;28;20436;-87
2021/10/31 00:06:37;;;;;;;23.17;10.18;;;11.90;99.90;;;;;;5015439;28;20041;-89
2021/10/31 00:09:06;;;;;;;23.20;10.30;;;11.90;99.90;;;;;;4981983;28;20389;-89
2021/10/31 00:11:33;;;;;;;31.65;10.45;;;11.90;99.90;;;;;;5014724;28;20037;-89
2021/10/31 00:13:59;;;;;;;30.50;11.32;;;11.80;99.90;;;;;;5014321;28;20462;-88
2021/10/31 00:16:24;;;;;;;37.80;11.32;;;11.90;99.90;;;;;;5032133;28;20077;-89
2021/10/31 00:18:50;;;;;;;24.50;10.65;;;11.80;99.90;;;;;;5031928;28;20072;-89
2021/10/31 00:21:16;;;;;;;20.52;11.90;;;11.90;99.90;;;;;;5013867;28;20049;-88
2021/10/31 00:23:42;;;;;;;24.10;11.13;;;11.90;99.90;;;;;;5013856;28;20049;-89
2021/10/31 00:26:07;;;;;;;29.45;11.63;;;11.80;99.90;;;;;;5012997;28;20041;-90
2021/10/31 00:28:33;;;;;;;24.30;11.15;;;11.80;99.90;;;;;;5014652;28;20057;-88
2021/10/31 00:30:59;;;;;;;24.35;12.13;;;11.80;99.90;;;;;;4997533;28;20053;-89
2021/10/31 00:33:25;;;;;;;25.60;11.20;;;11.80;99.90;;;;;;4997973;28;20049;-89
2021/10/31 00:35:51;;;;;;;26.48;12.52;;;11.80;99.90;;;;;;5014768;28;20053;-88
2021/10/31 00:38:16;;;;;;;24.77;11.73;;;11.70;99.90;;;;;;5031292;28;20131;-88
2021/10/31 00:40:44;;;;;;;26.30;12.30;;;11.70;99.90;;;;;;5014239;28;20045;-89
2021/10/31 00:43:09;;;;;;;31.55;13.95;;;11.70;99.90;;;;;;5013764;28;20034;-89
2021/10/31 00:45:35;;;;;;;28.70;12.40;;;11.60;99.90;;;;;;5014163;28;20469;-88
2021/10/31 00:48:01;;;;;;;29.70;13.43;;;11.60;99.90;;;;;;5013720;28;20041;-88
2021/10/31 00:50:27;;;;;;;30.35;12.32;;;11.60;99.90;;;;;;5031708;28;20041;-88
2021/10/31 00:52:53;;;;;;;32.58;13.25;;;11.50;99.90;;;;;;4997886;28;20124;-89
2021/10/31 00:55:19;;;;;;;30.65;14.80;;;11.40;99.90;;;;;;5013736;28;20497;-88
2021/10/31 00:57:46;;;;;;;33.25;13.90;;;11.40;99.90;;;;;;5031635;28;20041;-88
2021/10/31 01:00:12;;;;;;;27.50;14.45;;;11.30;99.90;;;;;;5012180;28;20049;-88
2021/10/31 01:02:39;;;;;;;33.30;14.57;;;11.30;99.90;;;;;;5011955;28;20041;-89
2021/10/31 01:05:09;;;;;;;36.50;14.90;;;11.20;99.90;;;;;;5013335;28;20125;-89
2021/10/31 01:07:50;;;;;;;32.05;12.57;;;11.20;99.90;;;;;;5013938;28;20080;-89
2021/10/31 01:10:40;;;;;;;40.75;16.80;;;11.10;99.90;;;;;;4997883;28;20132;-88
2021/10/31 01:13:19;;;;;;;51.50;17.47;;;11.10;99.90;;;;;;5013769;28;20053;-89
2021/10/31 01:16:03;;;;;;;32.50;17.77;;;11.00;99.90;;;;;;5014122;28;20571;-89
2021/10/31 01:18:51;;;;;;;39.53;18.15;;;11.00;99.90;;;;;;5014152;28;20042;-88
2021/10/31 01:21:28;;;;;;;35.13;17.35;;;10.90;99.90;;;;;;5013329;28;20045;-89
2021/10/31 01:24:12;;;;;;;41.85;19.17;;;10.90;99.90;;;;;;5010125;28;20050;-88
2021/10/31 01:27:07;;;;;;;43.50;19.52;;;10.90;99.90;;;;;;5010519;28;20201;-88
2021/10/31 01:29:57;;;;;;;41.58;20.80;;;10.90;99.90;;;;;;4993919;28;20137;-90
2021/10/31 01:32:27;;;;;;;;;;;10.90;99.90;;;;;;5011602;28;20050;-88
2021/10/31 01:34:56;;;;;;;51.75;21.95;;;10.90;99.90;;;;;;5010386;28;19928;-88
2021/10/31 01:37:46;;;;;;;46.35;22.23;;;10.90;99.90;;;;;;5012764;28;20183;-88
2021/10/31 01:40:18;;;;;;;;;;;10.80;99.90;;;;;;5014707;28;20042;-89
2021/10/31 01:43:21;;;;;;;50.72;23.25;;;10.80;99.90;;;;;;5014014;28;19944;-89
2021/10/31 01:46:07;;;;;;;47.70;23.65;;;10.80;99.90;;;;;;5013829;28;20037;-88
2021/10/31 01:48:59;;;;;;;53.22;25.95;;;10.80;99.90;;;;;;5014067;28;20048;-89
2021/10/31 01:51:54;;;;;;;54.70;23.95;;;10.80;99.90;;;;;;5013713;28;20049;-90
2021/10/31 01:54:28;;;;;;;64.10;24.70;;;10.80;99.90;;;;;;5010736;28;20049;-89
2021/10/31 01:56:59;;;;;;;56.60;26.48;;;10.80;99.90;;;;;;5013477;28;20046;-89
2021/10/31 01:59:33;;;;;;;52.67;27.77;;;10.80;99.90;;;;;;5013543;28;20042;-90
2021/10/31 02:02:03;;;;;;;61.10;26.92;;;10.80;99.90;;;;;;5014394;28;20107;-90
2021/10/31 02:04:32;;;;;;;52.33;27.27;;;10.80;99.90;;;;;;5013587;28;20054;-89
2021/10/31 02:06:59;;;;;;;62.83;27.13;;;10.70;99.90;;;;;;5013049;28;20999;-90
2021/10/31 02:09:30;;;;;;;54.92;25.75;;;10.70;99.90;;;;;;4996461;28;20051;-89
2021/10/31 02:11:57;;;;;;;55.38;27.95;;;10.70;99.90;;;;;;5013380;28;20056;-89
2021/10/31 02:14:24;;;;;;;58.97;27.65;;;10.70;99.90;;;;;;5014117;28;20050;-89
2021/10/31 02:16:51;;;;;;;55.90;27.23;;;10.60;99.90;;;;;;5013212;28;20045;-89
2021/10/31 02:19:24;;;;;;;57.88;27.85;;;10.60;99.90;;;;;;5013649;28;20440;-88
2021/10/31 02:21:59;;;;;;;62.80;28.08;;;10.50;99.90;;;;;;5013982;28;20052;-91
2021/10/31 02:24:25;;;;;;;60.05;28.38;;;10.60;99.90;;;;;;4999490;28;20133;-89
2021/10/31 02:26:52;;;;;;;58.58;28.63;;;10.60;99.90;;;;;;5016255;28;20038;-89
2021/10/31 02:29:19;;;;;;;64.03;30.35;;;10.50;99.90;;;;;;5015691;28;20041;-89
2021/10/31 02:31:45;;;;;;;63.13;29.75;;;10.60;99.90;;;;;;4999843;28;20084;-88
2021/10/31 02:34:11;;;;;;;71.20;31.02;;;10.60;99.90;;;;;;5015908;28;20041;-90
2021/10/31 02:36:37;;;;;;;65.40;29.48;;;10.50;99.90;;;;;;5016144;28;20388;-90
2021/10/31 02:39:07;;;;;;;70.97;31.10;;;10.60;99.90;;;;;;5016060;28;20416;-90
2021/10/31 02:41:35;;;;;;;64.10;29.95;;;10.60;99.90;;;;;;5015993;28;20100;-89
2021/10/31 02:44:02;;;;;;;73.07;32.00;;;10.60;99.90;;;;;;5016117;28;20045;-90
2021/10/31 02:46:32;;;;;;;65.18;31.50;;;10.60;99.90;;;;;;5016080;28;20045;-88
2021/10/31 02:48:58;;;;;;;63.87;29.77;;;10.70;99.90;;;;;;4999196;28;20104;-89
2021/10/31 02:51:39;;;;;;;71.88;30.92;;;10.70;99.90;;;;;;5015654;28;20056;-89
2021/10/31 02:54:40;;;;;;;68.05;31.08;;;10.60;99.90;;;;;;4999738;28;20049;-90
2021/10/31 02:57:08;;;;;;;61.50;31.23;;;10.70;99.90;;;;;;4991698;28;20093;-89
2021/10/31 02:59:57;;;;;;;65.68;31.10;;;10.60;99.90;;;;;;5015607;28;20048;-90
2021/10/31 03:02:26;;;;;;;78.45;32.67;;;10.70;99.90;;;;;;5015162;28;20049;-89
2021/10/31 03:04:53;;;;;;;71.72;30.77;;;10.70;99.90;;;;;;5015962;28;20081;-89
2021/10/31 03:07:22;;;;;;;70.13;30.55;;;10.70;99.90;;;;;;5015068;28;20124;-90
2021/10/31 03:09:48;;;;;;;59.67;31.00;;;10.60;99.90;;;;;;5015577;28;20064;-89
2021/10/31 03:12:15;;;;;;;68.40;29.20;;;10.70;99.90;;;;;;5015305;28;20041;-89
2021/10/31 03:14:41;;;;;;;68.28;31.45;;;10.60;99.90;;;;;;5015367;28;20402;-91
2021/10/31 03:17:07;;;;;;;61.50;30.35;;;10.60;99.90;;;;;;5015566;28;20042;-90
2021/10/31 03:19:36;;;;;;;64.90;30.25;;;10.60;99.90;;;;;;5032852;28;20057;-90
2021/10/31 03:22:02;;;;;;;65.50;30.42;;;10.60;99.90;;;;;;5015137;28;20106;-90
2021/10/31 03:24:28;;;;;;;58.97;27.70;;;10.60;99.90;;;;;;5015358;28;20045;-88
2021/10/31 03:26:54;;;;;;;56.78;29.58;;;10.50;99.90;;;;;;4999043;28;20046;-89
2021/10/31 03:29:22;;;;;;;65.10;30.95;;;10.50;99.90;;;;;;5015192;28;20388;-88
2021/10/31 03:31:48;;;;;;;80.28;30.40;;;10.50;99.90;;;;;;5015293;28;20048;-90
2021/10/31 03:34:13;;;;;;;68.43;30.08;;;10.50;99.90;;;;;;5014892;28;20068;-89
2021/10/31 03:36:39;;;;;;;58.88;29.08;;;10.50;99.90;;;;;;5015222;28;20474;-90
2021/10/31 03:39:07;;;;;;;66.90;29.48;;;10.50;99.90;;;;;;5015329;28;20044;-89
2021/10/31 03:41:33;;;;;;;58.42;29.15;;;10.50;99.90;;;;;;4998656;28;20052;-89
2021/10/31 03:43:58;;;;;;;61.03;29.52;;;10.40;99.90;;;;;;5015276;28;20106;-89
2021/10/31 03:46:24;;;;;;;55.35;28.40;;;10.50;99.90;;;;;;5014755;28;20427;-89
2021/10/31 03:48:50;;;;;;;57.00;28.25;;;10.50;99.90;;;;;;4999019;28;20037;-89
2021/10/31 03:51:16;;;;;;;56.72;28.85;;;10.40;99.90;;;;;;5032242;28;20051;-88
2021/10/31 03:53:41;;;;;;;56.00;27.35;;;10.30;99.90;;;;;;5015128;28;20041;-90
2021/10/31 03:56:07;;;;;;;52.92;27.80;;;10.30;99.90;;;;;;4998922;28;20045;-88
2021/10/31 03:58:33;;;;;;;71.90;30.55;;;10.30;99.90;;;;;;5014776;28;20117;-88
2021/10/31 04:01:00;;;;;;;51.28;26.60;;;10.20;99.90;;;;;;5014267;28;20084;-90
2021/10/31 04:03:26;;;;;;;57.78;29.33;;;10.10;99.90;;;;;;5031499;28;20543;-90
2021/10/31 04:05:52;;;;;;;54.55;28.88;;;10.20;99.90;;;;;;4997964;28;20095;-89
2021/10/31 04:08:18;;;;;;;65.40;29.38;;;10.10;99.90;;;;;;5031619;28;20073;-89
2021/10/31 04:10:43;;;;;;;65.35;30.45;;;10.10;99.90;;;;;;5014961;28;20470;-88
2021/10/31 04:13:09;;;;;;;64.05;30.00;;;10.10;99.90;;;;;;5014330;28;20041;-90
2021/10/31 04:15:35;;;;;;;58.80;29.42;;;10.00;99.90;;;;;;5014683;28;20041;-88
2021/10/31 04:18:01;;;;;;;58.40;29.17;;;10.00;99.90;;;;;;4998718;28;20465;-89
2021/10/31 04:20:26;;;;;;;66.28;28.98;;;10.00;99.90;;;;;;5014641;28;20045;-89
2021/10/31 04:22:52;;;;;;;63.55;27.58;;;10.00;99.90;;;;;;4998505;28;20050;-89
2021/10/31 04:25:18;;;;;;;68.53;31.15;;;9.80;99.90;;;;;;4998539;28;20053;-91
2021/10/31 04:27:44;;;;;;;58.60;30.30;;;9.80;99.90;;;;;;5014904;28;20058;-89
2021/10/31 04:30:12;;;;;;;75.43;30.60;;;9.80;99.90;;;;;;5014832;28;20462;-89
2021/10/31 04:32:38;;;;;;;74.80;33.10;;;9.60;99.90;;;;;;5014853;28;20138;-90
2021/10/31 04:35:05;;;;;;;60.05;31.00;;;9.60;99.90;;;;;;5015024;28;20084;-89
2021/10/31 04:37:32;;;;;;;69.35;31.73;;;9.50;99.90;;;;;;4997651;28;20048;-89
2021/10/31 04:39:59;;;;;;;58.67;29.05;;;9.50;99.90;;;;;;4997871;28;20048;-88
2021/10/31 04:42:30;;;;;;;68.65;32.45;;;9.40;99.90;;;;;;5013747;28;20586;-89
2021/10/31 04:44:55;;;;;;;73.68;32.95;;;9.40;99.90;;;;;;5014074;28;20049;-89
2021/10/31 04:47:21;;;;;;;78.57;32.75;;;9.30;99.90;;;;;;5013214;28;20195;-89
2021/10/31 04:49:47;;;;;;;80.15;34.22;;;9.40;99.90;;;;;;4997898;28;20561;-89
2021/10/31 04:52:14;;;;;;;85.72;35.50;;;9.30;99.90;;;;;;5013845;28;20045;-92
2021/10/31 04:54:40;;;;;;;79.57;34.55;;;9.30;99.90;;;;;;5013764;28;20049;-89
2021/10/31 04:57:06;;;;;;;87.10;34.88;;;9.40;99.90;;;;;;5014079;28;20048;-90
2021/10/31 04:59:32;;;;;;;82.90;35.08;;;9.40;99.90;;;;;;5013592;28;20073;-89
2021/10/31 05:01:58;;;;;;;77.88;34.00;;;9.40;99.90;;;;;;5013854;28;20056;-90
2021/10/31 05:04:23;;;;;;;92.05;36.95;;;9.30;99.90;;;;;;4997372;28;20045;-90
2021/10/31 05:06:49;;;;;;;78.22;35.25;;;9.40;99.90;;;;;;5013874;28;20091;-89
2021/10/31 05:09:15;;;;;;;82.82;34.65;;;9.40;99.90;;;;;;5016439;28;20128;-91
2021/10/31 05:11:41;;;;;;;82.50;34.72;;;9.40;99.90;;;;;;5018417;28;20128;-90
2021/10/31 05:14:07;;;;;;;81.25;35.80;;;9.40;99.90;;;;;;5004389;28;20041;-89
2021/10/31 05:16:35;;;;;;;93.43;37.75;;;9.40;99.90;;;;;;5020334;28;20095;-89
2021/10/31 05:19:01;;;;;;;94.07;36.83;;;9.40;99.90;;;;;;5020191;28;20042;-89
2021/10/31 05:21:27;;;;;;;98.15;36.28;;;9.40;99.90;;;;;;5019828;28;20124;-89
2021/10/31 05:23:53;;;;;;;81.30;34.70;;;9.50;99.90;;;;;;5004638;28;20093;-89
2021/10/31 05:26:18;;;;;;;81.70;35.22;;;9.40;99.90;;;;;;5024873;28;20140;-90
2021/10/31 05:28:44;;;;;;;81.65;36.47;;;9.50;99.90;;;;;;5024575;28;20124;-89
2021/10/31 05:31:10;;;;;;;90.53;37.05;;;9.50;99.90;;;;;;5023925;28;20041;-90
2021/10/31 05:33:36;;;;;;;76.28;34.15;;;9.50;99.90;;;;;;5022260;28;20041;-89
2021/10/31 05:36:03;;;;;;;74.20;34.10;;;9.60;99.90;;;;;;5017605;28;20136;-90
2021/10/31 05:38:28;;;;;;;84.60;35.10;;;9.60;99.90;;;;;;5001165;28;20037;-89
2021/10/31 05:40:54;;;;;;;84.50;34.72;;;9.60;99.90;;;;;;5017675;28;20663;-90
2021/10/31 05:43:20;;;;;;;87.00;35.67;;;9.70;99.90;;;;;;5000904;28;20056;-91
2021/10/31 05:45:46;;;;;;;72.00;33.90;;;9.70;99.90;;;;;;5016975;28;20081;-88
2021/10/31 05:48:12;;;;;;;82.13;35.05;;;9.80;99.90;;;;;;5017032;28;20046;-87
2021/10/31 05:50:39;;;;;;;74.47;32.65;;;9.70;99.90;;;;;;5016946;28;20052;-88
2021/10/31 05:53:05;;;;;;;73.80;34.40;;;9.70;99.90;;;;;;5017216;28;20050;-89
2021/10/31 05:55:31;;;;;;;74.47;33.33;;;9.80;99.90;;;;;;5017216;28;20128;-89
2021/10/31 05:57:57;;;;;;;82.63;33.13;;;9.80;99.90;;;;;;5017132;28;20489;-88
2021/10/31 06:00:22;;;;;;;71.38;32.08;;;9.80;99.90;;;;;;4983798;28;20042;-89
2021/10/31 06:02:48;;;;;;;79.90;32.08;;;9.80;99.90;;;;;;5000550;28;20132;-89
2021/10/31 06:05:15;;;;;;;72.93;31.60;;;9.90;99.90;;;;;;5000464;28;20080;-90
2021/10/31 06:07:42;;;;;;;73.47;30.92;;;9.90;99.90;;;;;;5016226;28;20033;-89
2021/10/31 06:10:08;;;;;;;74.00;32.10;;;9.90;99.90;;;;;;5016548;28;20041;-89
2021/10/31 06:12:34;;;;;;;64.93;31.45;;;9.90;99.90;;;;;;5015868;28;20385;-90
2021/10/31 06:15:02;;;;;;;66.10;31.65;;;9.90;99.90;;;;;;5016598;28;20033;-90
2021/10/31 06:17:28;;;;;;;74.95;33.33;;;9.90;99.90;;;;;;5033735;28;20038;-89
2021/10/31 06:19:54;;;;;;;65.43;30.55;;;9.90;99.90;;;;;;5034239;28;20038;-90
2021/10/31 06:22:20;;;;;;;59.83;29.45;;;9.90;99.90;;;;;;5015353;28;20124;-90
2021/10/31 06:24:45;;;;;;;59.67;29.60;;;10.00;99.90;;;;;;5016134;28;20052;-90
2021/10/31 06:27:11;;;;;;;58.03;28.63;;;10.00;99.90;;;;;;5015822;28;20041;-90
2021/10/31 06:29:37;;;;;;;50.17;27.05;;;10.00;99.90;;;;;;4999864;28;20048;-88
2021/10/31 06:32:03;;;;;;;52.97;26.92;;;10.00;99.90;;;;;;5016308;28;20500;-89
2021/10/31 06:34:28;;;;;;;50.95;26.98;;;10.00;99.90;;;;;;5016289;28;20433;-89
2021/10/31 06:36:54;;;;;;;50.35;26.65;;;9.90;99.90;;;;;;5016382;28;20124;-89
2021/10/31 06:39:20;;;;;;;67.85;28.75;;;9.90;99.90;;;;;;5033729;28;20465;-90
2021/10/31 06:41:45;;;;;;;57.55;28.05;;;9.90;99.90;;;;;;4999417;28;20052;-90
2021/10/31 06:44:11;;;;;;;54.42;26.45;;;9.90;99.90;;;;;;5015806;28;20041;-90
2021/10/31 06:46:37;;;;;;;55.40;28.08;;;9.90;99.90;;;;;;5015009;28;20042;-91
2021/10/31 06:49:04;;;;;;;48.75;25.70;;;9.90;99.90;;;;;;4999729;28;20125;-91
2021/10/31 06:51:30;;;;;;;47.85;26.13;;;9.90;99.90;;;;;;5015474;28;20076;-90
2021/10/31 06:53:56;;;;;;;48.72;25.20;;;10.00;99.90;;;;;;5015899;28;20445;-89
2021/10/31 06:56:22;;;;;;;46.97;24.45;;;10.00;99.90;;;;;;5015986;28;20041;-88
2021/10/31 06:58:47;;;;;;;44.05;25.40;;;10.00;99.90;;;;;;5015576;28;20431;-89
2021/10/31 07:01:13;;;;;;;52.25;25.73;;;10.00;99.90;;;;;;5000023;28;20045;-91
2021/10/31 07:03:41;;;;;;;46.95;25.83;;;10.00;99.90;;;;;;5015810;28;20041;-90
2021/10/31 07:06:09;;;;;;;49.38;26.85;;;10.00;99.90;;;;;;5000186;28;20042;-90
2021/10/31 07:08:34;;;;;;;46.90;26.77;;;10.00;99.90;;;;;;5015601;28;20057;-91
2021/10/31 07:11:00;;;;;;;48.75;26.30;;;10.00;99.90;;;;;;5016138;28;20362;-90
2021/10/31 07:13:26;;;;;;;54.75;27.02;;;10.00;99.90;;;;;;5015558;28;20034;-92
2021/10/31 07:15:52;;;;;;;57.65;28.40;;;10.00;99.90;;;;;;5015468;28;20488;-89
2021/10/31 07:18:17;;;;;;;52.58;26.90;;;10.10;99.90;;;;;;5033148;28;20082;-90
2021/10/31 07:20:43;;;;;;;53.90;26.73;;;10.10;99.90;;;;;;5015161;28;20465;-89
2021/10/31 07:23:09;;;;;;;52.40;26.77;;;10.00;99.90;;;;;;5014686;28;20054;-90
2021/10/31 07:25:34;;;;;;;58.25;26.92;;;10.10;99.90;;;;;;5032576;28;20507;-90
2021/10/31 07:28:00;;;;;;;46.85;25.10;;;10.10;99.90;;;;;;5015222;28;20033;-90
2021/10/31 07:30:26;;;;;;;54.55;26.98;;;10.10;99.90;;;;;;5015159;28;20046;-90
2021/10/31 07:32:59;;;;;;;50.72;26.10;;;10.20;99.90;;;;;;5015147;28;20084;-90
2021/10/31 07:35:26;;;;;;;52.28;25.98;;;10.20;99.90;;;;;;5015157;28;20056;-88
2021/10/31 07:37:52;;;;;;;54.10;26.92;;;10.30;99.90;;;;;;4998703;28;20037;-89
2021/10/31 07:40:18;;;;;;;53.88;24.38;;;10.30;99.90;;;;;;5015261;28;20065;-89
2021/10/31 07:42:43;;;;;;;57.45;25.52;;;10.30;99.90;;;;;;4998459;28;20056;-89
2021/10/31 07:45:09;;;;;;;45.35;23.83;;;10.30;99.90;;;;;;5014600;28;20041;-89
2021/10/31 07:47:35;;;;;;;47.28;22.50;;;10.30;99.90;;;;;;5014146;28;20045;-90
2021/10/31 07:50:01;;;;;;;43.50;23.10;;;10.30;99.90;;;;;;5014755;28;20047;-90
2021/10/31 07:52:27;;;;;;;39.88;22.55;;;10.30;99.90;;;;;;5032411;28;20041;-90
2021/10/31 07:54:53;;;;;;;46.47;23.73;;;10.40;99.90;;;;;;4998285;28;20080;-90
2021/10/31 07:57:20;;;;;;;50.60;24.33;;;10.40;99.90;;;;;;5032126;28;20041;-89
2021/10/31 07:59:46;;;;;;;37.15;20.92;;;10.50;99.90;;;;;;5014207;28;20080;-90
2021/10/31 08:02:12;;;;;;;39.15;20.92;;;10.40;99.90;;;;;;5014426;28;20436;-91
2021/10/31 08:04:38;;;;;;;36.92;20.50;;;10.40;99.90;;;;;;5014013;28;20049;-90
2021/10/31 08:07:04;;;;;;;36.95;20.70;;;10.50;99.90;;;;;;5014015;28;20053;-89
2021/10/31 08:09:29;;;;;;;34.35;20.83;;;10.50;99.90;;;;;;5014407;28;20052;-91
2021/10/31 08:11:55;;;;;;;39.75;21.10;;;10.50;99.90;;;;;;5015020;28;20042;-90
2021/10/31 08:14:21;;;;;;;33.45;19.25;;;10.60;99.90;;;;;;5014737;28;20080;-90
2021/10/31 08:16:47;;;;;;;34.38;19.48;;;10.50;99.90;;;;;;5014378;28;20053;-91
2021/10/31 08:19:13;;;;;;;33.20;18.85;;;10.60;99.90;;;;;;5015200;28;20045;-90
2021/10/31 08:21:39;;;;;;;31.10;18.30;;;10.60;99.90;;;;;;5013762;28;20055;-90
2021/10/31 08:24:06;;;;;;;31.65;18.00;;;10.70;99.90;;;;;;5013980;28;20057;-90
2021/10/31 08:26:32;;;;;;;31.77;18.27;;;10.80;99.90;;;;;;5013752;28;20041;-90
2021/10/31 08:29:01;;;;;;;36.33;19.58;;;10.80;99.90;;;;;;5014262;28;20197;-89
2021/10/31 08:31:40;;;;;;;33.08;18.75;;;10.90;99.90;;;;;;4997445;28;20037;-90
2021/10/31 08:34:06;;;;;;;30.92;16.42;;;10.90;99.90;;;;;;4997824;28;20079;-89
2021/10/31 08:36:32;;;;;;;26.70;15.32;;;11.00;99.90;;;;;;4997159;28;20080;-90
2021/10/31 08:38:58;;;;;;;32.53;16.63;;;11.00;99.90;;;;;;4997638;28;20037;-88
2021/10/31 08:41:26;;;;;;;25.23;15.63;;;11.10;99.90;;;;;;5013434;28;20389;-88
2021/10/31 08:43:53;;;;;;;29.35;16.45;;;11.00;99.90;;;;;;4997063;28;20693;-89
2021/10/31 08:46:20;;;;;;;26.98;16.13;;;11.00;99.90;;;;;;5015795;28;20081;-89
2021/10/31 08:48:46;;;;;;;34.50;16.75;;;11.10;99.90;;;;;;5018193;28;20467;-88
2021/10/31 08:51:13;;;;;;;30.10;16.60;;;11.10;99.90;;;;;;5017858;28;20037;-89
2021/10/31 08:53:38;;;;;;;33.75;17.05;;;11.20;99.90;;;;;;5017087;28;20041;-89
2021/10/31 08:56:09;;;;;;;26.77;15.77;;;11.10;99.90;;;;;;5001247;28;20064;-88
2021/10/31 08:58:35;;;;;;;27.00;17.17;;;11.20;99.90;;;;;;5017384;28;20052;-90
2021/10/31 09:01:00;;;;;;;28.02;17.88;;;11.20;99.90;;;;;;5017920;28;20041;-88
2021/10/31 09:03:26;;;;;;;27.60;17.20;;;11.20;99.90;;;;;;5018209;28;20534;-89
2021/10/31 09:05:52;;;;;;;25.83;16.45;;;11.30;99.90;;;;;;5001804;28;20045;-91
2021/10/31 09:08:18;;;;;;;34.63;17.17;;;11.30;99.90;;;;;;5001563;28;20033;-88
2021/10/31 09:10:44;;;;;;;26.63;16.75;;;11.30;99.90;;;;;;5017031;28;20049;-88
2021/10/31 09:13:12;;;;;;;27.70;17.25;;;11.30;99.90;;;;;;5017500;28;20077;-87
2021/10/31 09:15:38;;;;;;;33.05;17.75;;;11.40;99.90;;;;;;5034819;28;20085;-89
2021/10/31 09:18:05;;;;;;;28.98;16.67;;;11.50;99.90;;;;;;5017419;28;20049;-88
2021/10/31 09:20:32;;;;;;;22.48;15.52;;;11.50;99.90;;;;;;5017274;28;20124;-88
2021/10/31 09:22:58;;;;;;;26.42;15.75;;;11.60;99.90;;;;;;5033540;28;20493;-88
2021/10/31 09:25:25;;;;;;;21.85;15.23;;;11.70;99.90;;;;;;5016861;28;20053;-88
2021/10/31 09:27:51;;;;;;;22.40;14.65;;;11.80;99.90;;;;;;5016354;28;20099;-90
2021/10/31 09:30:17;;;;;;;22.58;14.63;;;11.80;99.90;;;;;;5016992;28;20053;-87
2021/10/31 09:32:46;;;;;;;22.92;14.85;;;11.80;99.90;;;;;;5016957;28;20124;-87
2021/10/31 09:35:14;;;;;;;24.45;14.15;;;11.90;99.90;;;;;;5016925;28;20474;-88
2021/10/31 09:37:39;;;;;;;23.70;14.27;;;11.90;99.90;;;;;;5016664;28;20447;-90
2021/10/31 09:40:05;;;;;;;26.40;13.27;;;11.90;99.90;;;;;;5017087;28;20133;-89
2021/10/31 09:42:33;;;;;;;19.33;13.85;;;11.90;99.90;;;;;;5017262;28;20033;-89
2021/10/31 09:44:59;;;;;;;25.45;14.43;;;11.90;99.90;;;;;;5016966;28;20053;-89
2021/10/31 09:47:26;;;;;;;19.30;13.32;;;11.90;99.90;;;;;;5000769;28;20049;-89
2021/10/31 09:49:52;;;;;;;24.85;13.88;;;11.80;99.90;;;;;;5000787;28;20067;-89
2021/10/31 09:52:19;;;;;;;17.77;12.60;;;11.90;99.90;;;;;;5017423;28;20477;-89
2021/10/31 09:54:46;;;;;;;23.85;12.73;;;11.90;99.90;;;;;;5017137;28;20047;-89
2021/10/31 09:57:13;;;;;;;17.60;12.23;;;11.90;99.90;;;;;;5017116;28;20180;-88
2021/10/31 09:59:41;;;;;;;16.42;12.55;;;12.00;99.90;;;;;;5000758;28;20049;-91
2021/10/31 10:04:49;;;;;;;14.88;10.40;;;12.10;99.90;;;;;;5000307;28;20065;-89
2021/10/31 10:07:16;;;;;;;18.88;11.07;;;12.20;99.90;;;;;;5016311;28;20128;-88
2021/10/31 10:09:51;;;;;;;17.77;9.98;;;12.30;99.90;;;;;;4999524;28;20515;-89
2021/10/31 10:12:19;;;;;;;13.05;9.60;;;12.30;99.90;;;;;;5034038;28;20049;-90
2021/10/31 10:15:06;;;;;;;15.75;10.57;;;12.40;99.90;;;;;;5015760;28;20084;-89
2021/10/31 10:17:52;;;;;;;17.23;10.68;;;12.50;99.90;;;;;;5016550;28;20584;-90
2021/10/31 10:20:20;;;;;;;20.23;11.40;;;12.50;99.90;;;;;;4999580;28;20132;-90
2021/10/31 10:22:46;;;;;;;15.85;11.35;;;12.60;99.90;;;;;;4999212;28;20300;-89
2021/10/31 10:25:13;;;;;;;17.95;11.95;;;12.60;99.90;;;;;;5000685;28;20049;-89
2021/10/31 10:27:53;;;;;;;15.57;11.27;;;12.70;99.90;;;;;;5033557;28;20038;-89
2021/10/31 10:30:21;;;;;;;16.55;10.13;;;12.70;99.90;;;;;;5016016;28;20038;-89
2021/10/31 10:32:49;;;;;;;15.85;10.73;;;12.80;99.90;;;;;;5033003;28;20143;-89
2021/10/31 10:35:21;;;;;;;15.95;10.10;;;12.80;99.90;;;;;;5015458;28;20049;-89
2021/10/31 10:37:47;;;;;;;14.45;9.15;;;12.80;99.90;;;;;;5015103;28;20389;-89
2021/10/31 10:40:23;;;;;;;18.58;10.13;;;12.90;99.90;;;;;;5015500;28;20068;-89
2021/10/31 10:42:55;;;;;;;13.63;9.68;;;13.00;99.90;;;;;;5015396;28;20103;-89
2021/10/31 10:45:26;;;;;;;17.95;8.63;;;13.10;99.90;;;;;;5015546;28;20493;-88
2021/10/31 10:48:02;;;;;;;17.25;9.45;;;13.10;99.90;;;;;;5015177;28;20037;-90
2021/10/31 10:50:39;;;;;;;17.77;9.10;;;13.10;99.90;;;;;;5015643;28;20443;-89
2021/10/31 10:53:17;;;;;;;16.67;9.27;;;13.10;99.90;;;;;;5015150;28;20048;-89
2021/10/31 10:55:42;;;;;;;11.93;8.35;;;13.20;99.90;;;;;;5014929;28;20138;-90
2021/10/31 10:58:14;;;;;;;13.40;8.50;;;13.20;99.90;;;;;;5015068;28;20104;-89
2021/10/31 11:00:46;;;;;;;13.38;8.48;;;13.40;99.90;;;;;;5015204;28;20588;-89
2021/10/31 11:03:15;;;;;;;16.35;8.57;;;13.40;99.90;;;;;;5015309;28;20045;-89
2021/10/31 11:05:45;;;;;;;18.52;9.23;;;13.50;99.90;;;;;;5015165;28;20053;-90
2021/10/31 11:08:12;;;;;;;;;;;13.60;99.90;;;;;;5015263;28;20041;-89
2021/10/31 11:10:48;;;;;;;15.15;9.52;;;13.60;99.90;;;;;;5014775;28;19963;-90
2021/10/31 11:13:15;;;;;;;13.00;8.57;;;13.60;99.90;;;;;;5014427;28;20045;-89
2021/10/31 11:15:41;;;;;;;16.48;9.23;;;13.60;99.90;;;;;;4998677;28;20096;-90
2021/10/31 11:18:09;;;;;;;13.02;9.32;;;13.60;99.90;;;;;;5014651;28;20049;-93
2021/10/31 11:20:40;;;;;;;15.52;9.00;;;13.60;99.90;;;;;;5013901;28;20033;-91
2021/10/31 11:23:10;;;;;;;13.38;8.88;;;13.60;99.90;;;;;;4997172;28;20073;-90
2021/10/31 11:25:38;;;;;;;14.90;9.07;;;13.70;99.90;;;;;;5014653;28;20049;-91
2021/10/31 11:28:06;;;;;;;15.57;8.93;;;13.70;99.90;;;;;;5014265;28;20121;-91
2021/10/31 11:30:33;;;;;;;14.88;8.23;;;13.90;99.90;;;;;;5014639;28;20124;-90
2021/10/31 11:33:00;;;;;;;12.15;7.90;;;13.90;99.90;;;;;;5014018;28;20052;-91
2021/10/31 11:35:28;;;;;;;12.02;8.13;;;14.00;99.90;;;;;;5013207;28;20488;-91
2021/10/31 11:37:59;;;;;;;17.05;10.68;;;14.10;99.90;;;;;;5031627;28;20191;-91
2021/10/31 11:40:35;;;;;;;12.10;7.90;;;14.10;99.90;;;;;;5014508;28;20068;-90
2021/10/31 11:43:06;;;;;;;19.17;8.50;;;14.10;99.90;;;;;;5013630;28;20443;-90
2021/10/31 11:45:38;;;;;;;15.10;7.55;;;14.20;99.90;;;;;;4998385;28;20051;-90
2021/10/31 11:48:17;;;;;;;12.77;8.05;;;14.20;99.90;;;;;;5031475;28;20041;-90
2021/10/31 11:51:03;;;;;;;11.20;7.13;;;14.20;99.90;;;;;;5014675;28;20450;-89
2021/10/31 11:54:03;;;;;;;13.63;8.27;;;14.20;99.90;;;;;;5014386;28;20112;-90
2021/10/31 11:56:31;;;;;;;10.55;7.18;;;14.20;99.90;;;;;;5013990;28;20045;-90
2021/10/31 11:58:59;;;;;;;9.68;7.65;;;14.20;99.90;;;;;;5014009;28;20354;-89
2021/10/31 12:01:36;;;;;;;11.52;7.22;;;14.30;99.90;;;;;;5014031;28;20080;-89
2021/10/31 12:04:11;;;;;;;11.85;6.47;;;14.30;99.90;;;;;;5013405;28;20041;-89
2021/10/31 12:06:43;;;;;;;8.57;6.47;;;14.30;99.90;;;;;;5013596;28;20092;-89
2021/10/31 12:09:23;;;;;;;9.85;6.57;;;14.30;99.90;;;;;;5012524;28;20124;-90
2021/10/31 12:11:51;;;;;;;10.93;6.40;;;14.30;99.90;;;;;;5013778;28;20429;-91
2021/10/31 12:14:41;;;;;;;7.75;5.70;;;14.30;99.90;;;;;;5013665;28;20116;-90
2021/10/31 12:17:06;;;;;;;9.63;7.05;;;14.30;99.90;;;;;;5013319;28;20055;-89
2021/10/31 12:19:36;;;;;;;12.55;6.22;;;14.20;99.90;;;;;;5013963;28;20136;-90
2021/10/31 12:22:06;;;;;;;9.98;5.85;;;14.20;99.90;;;;;;5012851;28;20041;-88
2021/10/31 12:24:37;;;;;;;9.57;6.05;;;14.20;99.90;;;;;;5014095;28;20052;-89
2021/10/31 12:27:10;;;;;;;10.38;6.28;;;14.20;99.90;;;;;;5012812;28;20543;-89
2021/10/31 12:29:36;;;;;;;14.45;5.93;;;14.10;99.90;;;;;;5014121;28;20052;-88
2021/10/31 12:32:17;;;;;;;6.55;5.93;;;14.10;99.90;;;;;;5013270;28;20205;-89
2021/10/31 12:34:49;;;;;;;8.88;5.32;;;14.10;99.90;;;;;;5013944;28;20037;-90
2021/10/31 12:37:23;;;;;;;12.93;5.68;;;14.20;99.90;;;;;;4997365;28;20053;-89
2021/10/31 12:40:07;;;;;;;10.20;5.68;;;14.20;99.90;;;;;;5014177;28;20045;-88
2021/10/31 12:42:52;;;;;;;12.32;5.10;;;14.10;99.90;;;;;;5013722;28;20128;-89